Time;durP1;ratioP1;P1;durP2;ratioP2;P2;SDS_P1;SDS_P2;PMS_P1;PMS_P2;Temp;Humidity;BMP_temperature;BMP_pressure;BME280_temperature;BME280_humidity;BME280_pressure;Samples;Min_cycle;Max_cycle;Signal;HPM_P1;HPM_P2
2021/12/20 00:02:28;;;;;;;24.10;8.63;;;7.50;99.90;;;7.32;100.00;102064.88;5205558;28;20057;-70
2021/12/20 00:05:00;;;;;;;21.35;7.95;;;7.50;99.90;;;7.34;100.00;102058.06;5205391;28;20049;-69
2021/12/20 00:07:34;;;;;;;18.85;7.97;;;7.50;99.90;;;7.33;100.00;102056.28;5204824;28;20055;-70
2021/12/20 00:10:06;;;;;;;18.98;7.75;;;7.50;99.90;;;7.32;100.00;102049.31;5205829;28;20490;-69
2021/12/20 00:12:38;;;;;;;19.20;7.75;;;7.50;99.90;;;7.33;100.00;102039.81;5205753;28;20053;-69
2021/12/20 00:15:11;;;;;;;19.63;7.25;;;7.50;99.90;;;7.33;100.00;102045.91;5204912;28;20050;-70
2021/12/20 00:17:43;;;;;;;23.88;7.72;;;7.50;99.90;;;7.35;100.00;102044.31;5205361;28;20049;-71
2021/12/20 00:20:17;;;;;;;18.58;7.28;;;7.50;99.90;;;7.36;100.00;102045.19;5205706;28;20059;-70
2021/12/20 00:22:50;;;;;;;17.10;7.00;;;7.50;99.90;;;7.37;100.00;102036.66;5205387;28;20112;-70
2021/12/20 00:25:22;;;;;;;16.70;6.57;;;7.50;99.90;;;7.39;100.00;102036.75;5205007;28;20045;-70
2021/12/20 00:27:54;;;;;;;15.73;6.78;;;7.50;99.90;;;7.40;100.00;102043.72;5205154;28;20049;-70
2021/12/20 00:30:26;;;;;;;16.63;7.18;;;7.50;99.90;;;7.42;100.00;102052.50;5205056;28;20053;-69
2021/12/20 00:32:58;;;;;;;16.75;6.38;;;7.50;99.90;;;7.42;100.00;102053.41;5205149;28;20060;-70
2021/12/20 00:35:30;;;;;;;15.27;6.10;;;7.50;99.90;;;7.42;100.00;102052.50;5204606;28;20054;-69
2021/12/20 00:40:53;;;;;;;15.88;6.47;;;7.50;99.90;;;7.39;100.00;102031.56;5205121;28;20064;-69
2021/12/20 00:43:25;;;;;;;13.55;5.78;;;7.50;99.90;;;7.38;100.00;102034.94;5205074;28;20053;-70
2021/12/20 00:45:57;;;;;;;16.90;6.15;;;7.50;99.90;;;7.38;100.00;102033.25;5204433;28;20053;-70
2021/12/20 00:48:29;;;;;;;14.95;5.53;;;7.50;99.90;;;7.39;100.00;102031.56;5205022;28;20487;-71
2021/12/20 00:51:01;;;;;;;14.68;5.53;;;7.50;99.90;;;7.40;100.00;102031.66;5205276;28;20051;-70
2021/12/20 00:53:35;;;;;;;12.23;5.45;;;7.50;99.90;;;7.40;100.00;102036.84;5204948;28;20046;-71
2021/12/20 00:56:07;;;;;;;15.18;5.85;;;7.50;99.90;;;7.42;100.00;102034.34;5204698;28;20045;-71
2021/12/20 00:58:39;;;;;;;15.05;5.78;;;7.50;99.90;;;7.41;100.00;102030.84;5205232;28;20055;-69
2021/12/20 01:01:11;;;;;;;13.68;5.70;;;7.50;99.90;;;7.39;100.00;102028.97;5204830;28;20072;-71
2021/12/20 01:03:43;;;;;;;16.75;5.90;;;7.50;99.90;;;7.40;100.00;102030.75;5204297;28;20046;-69
2021/12/20 01:06:15;;;;;;;17.50;5.93;;;7.50;99.90;;;7.38;100.00;102037.56;5204910;28;20132;-69
2021/12/20 01:08:50;;;;;;;13.32;6.10;;;7.50;99.90;;;7.34;100.00;102042.50;5205139;28;20053;-70
2021/12/20 01:11:26;;;;;;;16.38;6.43;;;7.50;99.90;;;7.34;100.00;102037.31;5204840;28;20053;-70
2021/12/20 01:14:00;;;;;;;13.20;5.65;;;7.50;99.90;;;7.34;100.00;102029.53;5204103;28;20498;-69
2021/12/20 01:16:33;;;;;;;15.55;6.68;;;7.50;99.90;;;7.36;100.00;102029.63;5205116;28;20516;-68
2021/12/20 01:19:05;;;;;;;16.52;6.15;;;7.50;99.90;;;7.37;100.00;102031.47;5205844;28;20046;-70
2021/12/20 01:21:37;;;;;;;15.02;6.00;;;7.50;99.90;;;7.37;100.00;102035.72;5208931;28;20045;-70
2021/12/20 01:24:10;;;;;;;16.20;6.68;;;7.50;99.90;;;7.33;100.00;102035.53;5208412;28;20052;-69
2021/12/20 01:26:42;;;;;;;18.48;7.05;;;7.50;99.90;;;7.31;100.00;102031.03;5208466;28;20375;-70
2021/12/20 01:29:14;;;;;;;17.52;6.93;;;7.50;99.90;;;7.28;100.00;102036.91;5208582;28;20490;-70
2021/12/20 01:31:46;;;;;;;17.83;7.50;;;7.50;99.90;;;7.29;100.00;102037.81;5208558;28;20049;-70
2021/12/20 01:34:18;;;;;;;16.73;6.68;;;7.50;99.90;;;7.28;100.00;102036.91;5207833;28;20060;-71
2021/12/20 01:36:50;;;;;;;13.50;5.78;;;7.50;99.90;;;7.28;100.00;102042.09;5208895;28;20045;-70
2021/12/20 01:39:24;;;;;;;16.58;6.45;;;7.50;99.90;;;7.29;100.00;102038.69;5208645;28;20055;-70
2021/12/20 01:41:58;;;;;;;13.88;5.90;;;7.40;99.90;;;7.32;100.00;102044.13;5208547;28;20060;-70
2021/12/20 01:44:31;;;;;;;15.55;5.72;;;7.40;99.90;;;7.34;100.00;102041.63;5207849;28;20095;-70
2021/12/20 01:47:07;;;;;;;15.63;6.30;;;7.40;99.90;;;7.33;100.00;102035.53;5208657;28;20048;-69
2021/12/20 01:49:51;;;;;;;17.42;6.15;;;7.40;99.90;;;7.32;100.00;102038.94;5208331;28;20107;-70
2021/12/20 01:52:26;;;;;;;16.50;6.50;;;7.50;99.90;;;7.33;100.00;102029.44;5208356;28;20494;-69
2021/12/20 01:55:00;;;;;;;15.32;5.53;;;7.40;99.90;;;7.33;100.00;102030.34;5207626;28;20053;-70
2021/12/20 01:57:32;;;;;;;15.07;6.05;;;7.40;99.90;;;7.34;100.00;102033.84;5207971;28;20052;-69
2021/12/20 02:00:07;;;;;;;17.00;6.28;;;7.40;99.90;;;7.33;100.00;102030.34;5208012;28;20050;-70
2021/12/20 02:02:41;;;;;;;14.63;6.18;;;7.50;99.90;;;7.33;100.00;102027.75;5207986;28;20041;-70
2021/12/20 02:05:19;;;;;;;17.65;6.20;;;7.40;99.90;;;7.34;100.00;102026.94;5207341;28;20055;-68
2021/12/20 02:07:58;;;;;;;15.77;6.32;;;7.40;99.90;;;7.34;100.00;102023.47;5207384;28;20053;-70
2021/12/20 02:10:33;;;;;;;14.57;5.57;;;7.50;99.90;;;7.37;100.00;102027.94;5207967;28;20695;-70
2021/12/20 02:13:06;;;;;;;17.60;5.63;;;7.50;99.90;;;7.37;100.00;102030.53;5207823;28;20132;-70
2021/12/20 02:15:38;;;;;;;16.48;6.00;;;7.50;99.90;;;7.37;100.00;102026.28;5207562;28;20045;-70
2021/12/20 02:18:10;;;;;;;15.43;5.72;;;7.50;99.90;;;7.38;100.00;102029.75;5207505;28;20056;-70
2021/12/20 02:20:44;;;;;;;17.60;6.15;;;7.50;99.90;;;7.38;100.00;102024.56;5208107;28;20045;-70
2021/12/20 02:23:16;;;;;;;14.07;7.15;;;7.40;99.90;;;7.38;100.00;102029.75;5207906;28;20419;-70
2021/12/20 02:25:48;;;;;;;19.73;6.47;;;7.50;99.90;;;7.35;100.00;102022.66;5207367;28;20056;-69
2021/12/20 02:28:23;;;;;;;17.92;6.13;;;7.40;99.90;;;7.37;100.00;102027.94;5207790;28;20049;-69
2021/12/20 02:37:00;;;;;;;16.13;5.80;;;7.40;99.90;;;7.35;100.00;102018.38;5206838;28;20045;-70
2021/12/20 02:37:14;;;;;;;17.02;5.60;;;7.40;99.90;;;7.30;100.00;102016.25;5207583;28;20187;-70
2021/12/20 02:39:47;;;;;;;11.05;4.43;;;7.40;99.90;;;7.26;100.00;102025.53;5207090;28;20050;-70
2021/12/20 02:42:24;;;;;;;17.00;5.07;;;7.40;99.90;;;7.25;100.00;102023.75;5207516;28;20049;-69
2021/12/20 02:45:09;;;;;;;13.00;4.82;;;7.40;99.90;;;7.25;100.00;102020.25;5206759;28;20057;-70
2021/12/20 02:47:44;;;;;;;12.77;4.57;;;7.40;99.90;;;7.26;100.00;102016.88;5207201;28;20056;-69
2021/12/20 02:50:16;;;;;;;14.93;4.95;;;7.40;99.90;;;7.24;100.00;102021.97;5207558;28;20056;-70
2021/12/20 02:52:50;;;;;;;15.00;4.93;;;7.40;99.90;;;7.24;100.00;102014.19;5207076;28;20124;-71
2021/12/20 02:55:22;;;;;;;12.52;4.97;;;7.40;99.90;;;7.23;100.00;102016.63;5206445;28;20406;-70
2021/12/20 02:57:54;;;;;;;11.63;4.28;;;7.40;99.90;;;7.22;100.00;102025.22;5207159;28;20052;-70
2021/12/20 03:00:26;;;;;;;19.55;4.65;;;7.40;99.90;;;7.22;100.00;102031.31;5206630;28;20064;-70
2021/12/20 03:02:58;;;;;;;12.18;4.60;;;7.40;99.90;;;7.22;100.00;102020.94;5206623;28;20049;-70
2021/12/20 03:05:30;;;;;;;15.57;4.93;;;7.40;99.90;;;7.24;100.00;102024.56;5206332;28;20055;-69
2021/12/20 03:08:05;;;;;;;11.27;4.53;;;7.30;99.90;;;7.27;100.00;102026.44;5206863;28;20046;-70
2021/12/20 03:10:41;;;;;;;12.77;4.60;;;7.40;99.90;;;7.28;100.00;102030.81;5207046;28;20107;-70
2021/12/20 03:13:13;;;;;;;12.05;4.20;;;7.40;99.90;;;7.28;100.00;102031.72;5206420;28;20092;-69
2021/12/20 03:15:45;;;;;;;14.48;4.68;;;7.40;99.90;;;7.26;100.00;102028.13;5206495;28;20053;-70
2021/12/20 03:18:17;;;;;;;14.90;4.55;;;7.40;99.90;;;7.27;100.00;102024.75;5206392;28;20049;-69
2021/12/20 03:20:49;;;;;;;15.38;5.22;;;7.40;99.90;;;7.28;100.00;102029.13;5206658;28;20498;-70
2021/12/20 03:23:23;;;;;;;15.20;4.75;;;7.40;99.90;;;7.28;100.00;102031.72;5206453;28;20463;-70
2021/12/20 03:25:54;;;;;;;13.30;5.25;;;7.40;99.90;;;7.29;100.00;102022.25;5206129;28;20432;-69
2021/12/20 03:28:26;;;;;;;16.15;4.80;;;7.40;99.90;;;7.30;100.00;102019.78;5206263;28;20053;-70
2021/12/20 03:30:58;;;;;;;12.45;4.22;;;7.40;99.90;;;7.30;100.00;102021.44;5206333;28;20136;-69
2021/12/20 03:33:30;;;;;;;16.70;4.20;;;7.40;99.90;;;7.29;100.00;102027.44;5206424;28;20053;-72
2021/12/20 03:36:02;;;;;;;15.10;4.43;;;7.40;99.90;;;7.27;100.00;102024.75;5206129;28;20055;-70
2021/12/20 03:38:36;;;;;;;12.65;3.75;;;7.40;99.90;;;7.26;100.00;102028.13;5206302;28;20127;-70
2021/12/20 03:41:08;;;;;;;13.43;3.60;;;7.40;99.90;;;7.26;100.00;102020.34;5206168;28;20046;-70
2021/12/20 03:43:40;;;;;;;16.85;3.65;;;7.30;99.90;;;7.21;100.00;102023.44;5205246;28;20491;-69
2021/12/20 03:46:13;;;;;;;12.38;3.35;;;7.30;99.90;;;7.20;100.00;102025.13;5205449;28;20053;-69
2021/12/20 03:48:45;;;;;;;16.65;3.30;;;7.30;99.90;;;7.15;98.82;102031.69;5205825;28;20060;-69
2021/12/20 03:51:17;;;;;;;11.75;2.60;;;7.30;99.90;;;7.14;99.31;102027.31;5206083;28;20049;-69
2021/12/20 03:53:51;;;;;;;11.98;3.33;;;7.30;99.90;;;7.14;98.43;102029.88;5205573;28;20132;-70
2021/12/20 03:56:23;;;;;;;12.25;2.72;;;7.20;99.90;;;7.09;97.51;102028.69;5205846;28;20055;-70
2021/12/20 03:58:55;;;;;;;7.22;2.35;;;7.20;99.90;;;7.10;97.07;102030.47;5206044;28;20042;-69
2021/12/20 04:01:27;;;;;;;8.45;2.47;;;7.20;99.90;;;7.08;95.84;102034.66;5205853;28;20049;-69
2021/12/20 04:04:00;;;;;;;12.27;3.33;;;7.20;99.90;;;7.08;95.72;102034.66;5205243;28;20138;-71
2021/12/20 04:06:34;;;;;;;15.07;3.42;;;7.30;99.90;;;7.10;95.67;102030.47;5206237;28;20409;-70
2021/12/20 04:09:08;;;;;;;16.40;4.53;;;7.20;99.90;;;7.09;95.23;102028.69;5205546;28;20056;-70
2021/12/20 04:11:40;;;;;;;11.10;3.10;;;7.30;99.90;;;7.08;94.68;102024.28;5205678;28;20490;-69
2021/12/20 04:14:12;;;;;;;10.93;3.10;;;7.30;99.90;;;7.06;94.52;102028.47;5205091;28;20049;-69
2021/12/20 04:16:44;;;;;;;10.85;2.88;;;7.30;99.90;;;7.02;94.58;102032.53;5206133;28;20052;-69
2021/12/20 04:19:16;;;;;;;15.57;3.20;;;7.20;99.90;;;6.99;94.31;102036.63;5205296;28;20047;-70
2021/12/20 04:21:48;;;;;;;13.02;3.00;;;7.20;99.90;;;7.00;94.35;102039.31;5205475;28;20049;-69
2021/12/20 04:24:21;;;;;;;14.05;3.22;;;7.20;99.90;;;6.99;93.85;102034.94;5205261;28;20426;-70
2021/12/20 04:26:53;;;;;;;16.27;3.63;;;7.30;99.90;;;7.03;93.84;102038.63;5205520;28;20052;-70
2021/12/20 04:29:27;;;;;;;15.77;3.60;;;7.20;99.90;;;7.01;93.56;102040.22;5205563;28;20045;-71
2021/12/20 04:31:59;;;;;;;10.70;3.45;;;7.20;99.90;;;6.98;94.07;102032.25;5205162;28;20140;-71
2021/12/20 04:34:31;;;;;;;10.88;3.00;;;7.20;99.90;;;6.98;93.28;102038.31;5204710;28;20060;-71
2021/12/20 04:37:06;;;;;;;10.43;2.70;;;7.20;99.90;;;6.93;93.53;102038.81;5205185;28;20056;-70
2021/12/20 04:39:40;;;;;;;13.15;3.53;;;7.20;99.90;;;6.95;92.89;102037.19;5205169;28;20057;-71
2021/12/20 04:42:12;;;;;;;11.48;3.15;;;7.10;99.90;;;6.95;92.54;102042.38;5205435;28;20059;-69
2021/12/20 04:44:44;;;;;;;9.63;2.72;;;7.20;99.90;;;6.94;92.07;102043.19;5204621;28;20403;-70
2021/12/20 04:47:16;;;;;;;9.90;2.75;;;7.20;99.90;;;6.97;92.03;102035.59;5205329;28;20646;-70
2021/12/20 04:49:48;;;;;;;7.57;2.00;;;7.10;99.90;;;6.99;91.79;102045.31;5272843;23;20513;-73
2021/12/20 04:52:20;;;;;;;10.57;2.45;;;7.20;99.90;;;7.01;91.04;102035.03;5226202;28;20045;-75
2021/12/20 04:54:53;;;;;;;10.77;2.30;;;7.20;99.90;;;7.04;90.17;102035.22;5225822;28;20081;-74
2021/12/20 04:57:25;;;;;;;11.90;2.47;;;7.10;99.90;;;7.04;90.13;102035.22;5226568;28;20051;-73
2021/12/20 04:59:57;;;;;;;12.88;2.15;;;7.20;99.90;;;7.03;89.39;102031.75;5226322;28;20067;-73
2021/12/20 05:02:29;;;;;;;10.68;2.00;;;7.20;99.90;;;7.01;88.12;102040.22;5226179;28;20083;-73
2021/12/20 05:05:02;;;;;;;9.80;2.05;;;7.20;99.90;;;6.99;87.38;102037.53;5226388;28;20044;-74
2021/12/20 05:07:34;;;;;;;13.50;2.50;;;7.10;99.90;;;7.01;86.46;102040.22;5226963;28;20139;-74
2021/12/20 05:10:12;;;;;;;10.85;2.03;;;7.10;99.90;;;6.99;85.21;102041.81;5225896;28;20049;-72
2021/12/20 05:12:44;;;;;;;9.23;2.25;;;7.10;99.90;;;7.00;84.10;102044.50;5226281;28;20060;-73
2021/12/20 05:15:16;;;;;;;8.35;1.92;;;7.10;99.90;;;7.00;83.72;102038.44;5226314;28;20410;-74
2021/12/20 05:17:48;;;;;;;6.07;1.77;;;7.10;99.90;;;7.01;82.88;102040.22;5226256;28;20041;-73
2021/12/20 05:20:20;;;;;;;6.93;1.83;;;7.10;99.90;;;7.00;82.63;102041.91;5226216;28;20053;-74
2021/12/20 05:22:53;;;;;;;10.32;1.80;;;7.10;99.90;;;7.01;81.99;102042.81;5226100;28;20477;-74
2021/12/20 05:25:28;;;;;;;3.45;1.27;;;7.20;99.90;;;7.02;81.69;102044.59;5226805;28;20489;-73
2021/12/20 05:28:00;;;;;;;12.68;2.08;;;7.10;99.90;;;7.04;81.26;102040.41;5225469;28;20512;-74
2021/12/20 05:30:32;;;;;;;5.88;1.73;;;7.10;99.90;;;7.07;80.63;102054.50;5225594;28;20075;-73
2021/12/20 05:33:05;;;;;;;12.88;2.08;;;7.20;99.90;;;7.08;80.76;102047.63;5225523;28;20045;-75
2021/12/20 05:35:37;;;;;;;10.80;2.30;;;7.20;99.90;;;7.07;81.06;102053.59;5224750;28;20051;-74
2021/12/20 05:38:09;;;;;;;11.23;2.40;;;7.20;99.90;;;7.07;81.05;102056.19;5225243;28;20424;-73
2021/12/20 05:40:43;;;;;;;7.50;2.42;;;7.20;99.90;;;7.05;80.50;102053.50;5225222;28;20067;-73
2021/12/20 05:43:15;;;;;;;6.03;1.67;;;7.20;99.90;;;7.04;80.95;102055.97;5224932;28;20505;-73
2021/12/20 05:45:47;;;;;;;9.52;2.10;;;7.20;99.90;;;7.03;80.62;102056.78;5225704;28;20049;-73
2021/12/20 05:48:19;;;;;;;10.02;2.08;;;7.20;99.90;;;7.01;81.01;102056.69;5225329;28;20630;-73
2021/12/20 05:50:52;;;;;;;6.43;1.85;;;7.10;99.90;;;7.00;80.60;102054.88;5224672;28;20059;-75
2021/12/20 05:53:24;;;;;;;10.13;2.28;;;7.10;99.90;;;7.00;81.05;102059.16;5224472;28;20103;-72
2021/12/20 05:55:57;;;;;;;11.60;2.53;;;7.10;99.90;;;6.97;80.78;102065.03;5224372;28;20045;-73
2021/12/20 05:58:29;;;;;;;11.00;2.40;;;7.10;99.90;;;6.98;80.49;102065.94;5224998;28;20141;-75
2021/12/20 06:01:01;;;;;;;14.30;2.65;;;7.10;99.90;;;6.98;80.71;102060.78;5225091;28;20391;-73
2021/12/20 06:03:33;;;;;;;12.57;2.50;;;7.10;99.90;;;6.98;80.62;102065.94;5226950;28;20045;-73
2021/12/20 06:06:05;;;;;;;11.82;1.75;;;7.00;99.90;;;6.96;80.20;102068.41;5225362;28;20061;-74
2021/12/20 06:08:37;;;;;;;7.90;2.13;;;7.00;99.90;;;6.96;80.35;102075.28;5228618;28;20386;-73
2021/12/20 06:11:11;;;;;;;9.43;2.30;;;7.00;99.90;;;6.96;80.31;102072.69;5228306;28;20417;-75
2021/12/20 06:13:43;;;;;;;11.48;2.20;;;7.00;99.90;;;6.95;80.25;102070.91;5228314;28;20136;-72
2021/12/20 06:16:15;;;;;;;12.38;2.10;;;7.00;99.90;;;6.96;80.39;102067.50;5227962;28;20139;-75
2021/12/20 06:18:47;;;;;;;12.65;3.45;;;7.10;99.90;;;6.96;80.48;102073.59;5228871;28;20406;-73
2021/12/20 06:21:19;;;;;;;14.65;3.22;;;7.10;99.90;;;6.95;81.36;102073.50;5228511;28;20559;-75
2021/12/20 06:23:51;;;;;;;10.45;1.88;;;7.00;99.90;;;6.94;81.37;102072.59;5229736;28;20049;-73
2021/12/20 06:26:25;;;;;;;13.75;2.95;;;7.00;99.90;;;6.92;81.48;102071.59;5228196;28;20049;-73
2021/12/20 06:28:57;;;;;;;17.15;2.65;;;7.00;99.90;;;6.89;81.81;102070.47;5228274;28;20053;-74
2021/12/20 06:31:29;;;;;;;12.02;2.20;;;7.00;99.90;;;6.89;81.97;102065.28;5228383;28;20132;-75
2021/12/20 06:34:01;;;;;;;15.00;2.38;;;7.00;99.90;;;6.88;81.88;102074.75;5227576;28;20045;-75
2021/12/20 06:36:33;;;;;;;9.77;2.25;;;7.00;99.90;;;6.88;81.50;102072.16;5228421;28;20049;-73
2021/12/20 06:39:06;;;;;;;12.35;2.83;;;7.00;99.90;;;6.88;81.54;102081.66;5228275;28;20054;-72
2021/12/20 06:41:39;;;;;;;13.63;2.05;;;7.00;99.90;;;6.87;81.60;102088.53;5229829;28;20051;-72
2021/12/20 06:44:11;;;;;;;11.40;2.40;;;6.90;99.90;;;6.87;81.53;102088.53;5227999;28;20049;-75
2021/12/20 06:46:44;;;;;;;10.35;1.92;;;6.90;99.90;;;6.86;81.22;102078.06;5228658;28;20049;-73
2021/12/20 06:49:16;;;;;;;11.30;2.55;;;6.90;99.90;;;6.88;81.32;102084.25;5228566;28;20051;-74
2021/12/20 06:51:48;;;;;;;11.73;2.10;;;6.90;99.90;;;6.87;81.25;102091.13;5228164;28;20063;-73
2021/12/20 06:54:20;;;;;;;9.27;2.25;;;6.90;99.90;;;6.86;81.01;102089.31;5228469;28;20067;-74
2021/12/20 06:56:53;;;;;;;11.52;2.15;;;6.90;99.90;;;6.84;80.79;102092.56;5230360;28;20049;-75
2021/12/20 06:59:26;;;;;;;8.07;2.58;;;6.90;99.90;;;6.84;80.82;102092.56;5228340;28;20405;-72
2021/12/20 07:01:58;;;;;;;9.70;1.95;;;6.90;99.90;;;6.82;80.58;102095.06;5227740;28;20199;-71
2021/12/20 07:04:30;;;;;;;7.07;1.70;;;6.90;99.90;;;6.82;80.42;102092.47;5227781;28;20505;-72
2021/12/20 07:07:02;;;;;;;11.32;2.05;;;6.90;99.90;;;6.84;81.07;102095.16;5228381;28;20489;-72
2021/12/20 07:09:34;;;;;;;8.65;2.35;;;6.90;99.90;;;6.84;80.48;102092.56;5227759;28;20425;-71
2021/12/20 07:12:09;;;;;;;10.90;2.00;;;6.90;99.90;;;6.84;80.72;102097.75;5227825;28;20533;-71
2021/12/20 07:14:42;;;;;;;6.93;1.42;;;6.90;99.90;;;6.84;81.00;102097.75;5227342;28;20052;-72
2021/12/20 07:17:14;;;;;;;8.02;2.42;;;6.90;99.90;;;6.82;81.53;102102.84;5227917;28;20260;-72
2021/12/20 07:19:46;;;;;;;7.75;1.67;;;6.90;99.90;;;6.82;81.03;102110.63;5228073;28;20049;-72
2021/12/20 07:22:18;;;;;;;10.90;1.67;;;6.90;99.90;;;6.82;81.55;102109.72;5227814;28;20514;-72
2021/12/20 07:24:50;;;;;;;11.02;2.00;;;6.90;99.90;;;6.82;81.73;102114.91;5227029;28;20059;-72
2021/12/20 07:27:23;;;;;;;8.63;1.77;;;6.90;99.90;;;6.81;82.34;102103.66;5227406;28;20575;-70
2021/12/20 07:29:55;;;;;;;12.75;1.85;;;6.90;99.90;;;6.82;82.84;102105.44;5227651;28;20492;-71
2021/12/20 07:32:27;;;;;;;8.35;2.55;;;6.90;99.90;;;6.82;83.21;102120.09;5227652;28;20374;-70
2021/12/20 07:34:59;;;;;;;8.75;2.00;;;6.90;99.90;;;6.80;83.36;102122.59;5227128;28;20051;-71
2021/12/20 07:37:31;;;;;;;14.63;2.03;;;6.90;99.90;;;6.78;83.92;102126.75;5227110;28;20047;-73
2021/12/20 07:40:04;;;;;;;12.02;2.33;;;6.90;99.90;;;6.78;83.96;102125.06;5227554;28;20045;-70
2021/12/20 07:42:38;;;;;;;9.27;2.40;;;6.90;99.90;;;6.78;84.18;102119.88;5227296;28;20056;-73
2021/12/20 07:45:11;;;;;;;9.48;2.53;;;6.90;99.90;;;6.75;83.82;102122.25;5226762;28;20045;-70
2021/12/20 07:47:43;;;;;;;13.35;1.98;;;6.80;99.90;;;6.73;83.77;102121.25;5227109;28;20490;-70
2021/12/20 07:50:16;;;;;;;6.85;2.00;;;6.80;99.90;;;6.73;83.67;102121.25;5226895;28;20514;-72
2021/12/20 07:52:49;;;;;;;10.07;2.30;;;6.80;99.90;;;6.74;84.12;102127.31;5226818;28;20071;-75
2021/12/20 07:55:21;;;;;;;4.07;1.45;;;6.90;99.90;;;6.75;83.76;102139.50;5226227;28;20056;-72
2021/12/20 07:57:54;;;;;;;11.20;1.80;;;6.80;99.90;;;6.73;83.94;102126.44;5226793;28;20059;-70
2021/12/20 08:00:27;;;;;;;7.65;2.25;;;6.80;99.90;;;6.77;83.70;102130.13;5226712;28;20053;-71
2021/12/20 08:02:59;;;;;;;15.05;2.30;;;6.80;99.90;;;6.77;83.97;102128.44;5226344;28;20053;-70
2021/12/20 08:05:32;;;;;;;11.48;3.28;;;6.90;99.90;;;6.76;83.66;102131.81;5226183;28;20474;-70
2021/12/20 08:08:05;;;;;;;8.85;1.92;;;6.90;99.90;;;6.76;83.56;102129.22;5226683;28;20041;-72
2021/12/20 08:10:38;;;;;;;11.52;2.10;;;6.90;99.90;;;6.79;83.96;102125.97;5226454;28;20041;-71
2021/12/20 08:13:12;;;;;;;13.85;2.58;;;6.80;99.90;;;6.79;83.79;102129.47;5226045;28;20045;-71
2021/12/20 08:15:44;;;;;;;7.97;2.15;;;6.90;99.90;;;6.80;83.31;102135.53;5226036;28;20053;-71
2021/12/20 08:18:16;;;;;;;16.60;2.53;;;6.90;99.90;;;6.80;83.16;102141.63;5226080;28;20058;-76
2021/12/20 08:20:48;;;;;;;9.40;1.98;;;6.90;99.90;;;6.82;83.40;102133.94;5226338;28;20470;-70
2021/12/20 08:23:20;;;;;;;15.43;3.50;;;6.90;99.90;;;6.83;82.40;102142.63;5225968;28;20504;-73
2021/12/20 08:25:52;;;;;;;11.27;2.97;;;6.90;99.90;;;6.85;83.10;102136.78;5225743;28;20052;-71
2021/12/20 08:28:27;;;;;;;19.02;3.22;;;7.00;99.90;;;6.89;82.56;102137.88;5225595;28;20080;-74
2021/12/20 08:30:59;;;;;;;9.77;1.90;;;7.00;99.90;;;6.82;82.18;102140.84;5226101;28;20048;-72
2021/12/20 08:33:32;;;;;;;11.85;2.50;;;7.00;99.90;;;6.80;82.78;102144.22;5225774;28;20045;-71
2021/12/20 08:36:09;;;;;;;8.20;2.15;;;7.00;99.90;;;6.77;82.49;102143.97;5225710;28;20478;-73
2021/12/20 08:38:42;;;;;;;7.65;2.45;;;7.00;99.90;;;6.70;82.62;102144.34;5226214;28;20052;-72
2021/12/20 08:41:14;;;;;;;13.00;2.60;;;7.00;99.90;;;6.65;82.79;102158.69;5226051;28;20045;-72
2021/12/20 08:43:47;;;;;;;8.82;2.00;;;6.90;99.90;;;6.61;83.23;102146.28;5225368;28;20512;-71
2021/12/20 08:46:19;;;;;;;9.55;2.55;;;6.90;99.90;;;6.57;83.89;102157.19;5225517;28;20045;-71
2021/12/20 08:48:52;;;;;;;13.40;3.08;;;6.90;99.90;;;6.59;83.96;102152.16;5225765;28;20048;-72
2021/12/20 08:51:25;;;;;;;12.50;2.40;;;6.90;99.90;;;6.59;83.65;102147.88;5225656;28;20132;-73
2021/12/20 08:53:57;;;;;;;12.48;2.42;;;6.90;99.90;;;6.60;83.97;102160.03;5225567;28;20063;-72
2021/12/20 08:56:29;;;;;;;13.27;2.70;;;6.90;99.90;;;6.59;83.54;102157.34;5225862;28;20056;-72
2021/12/20 08:59:03;;;;;;;10.55;2.33;;;6.90;99.90;;;6.58;83.80;102156.41;5225597;28;20052;-70
2021/12/20 09:01:36;;;;;;;10.25;2.30;;;6.90;99.90;;;6.56;83.67;102155.41;5225491;28;20521;-70
2021/12/20 09:04:09;;;;;;;15.13;2.45;;;6.90;99.90;;;6.56;83.58;102172.66;5224889;28;20059;-72
2021/12/20 09:06:42;;;;;;;10.02;2.30;;;6.90;99.90;;;6.48;83.29;102169.50;5225336;28;20045;-70
2021/12/20 09:09:16;;;;;;;15.15;3.45;;;6.80;99.90;;;6.41;83.70;102173.34;5225629;28;20049;-72
2021/12/20 09:11:48;;;;;;;13.98;2.15;;;6.80;99.90;;;6.40;83.68;102175.81;5225682;28;20095;-71
2021/12/20 09:14:22;;;;;;;10.75;3.22;;;6.80;99.90;;;6.39;83.63;102174.00;5225254;28;20053;-71
2021/12/20 09:16:54;;;;;;;13.05;2.88;;;6.70;99.90;;;6.34;83.70;102181.44;5225621;28;20565;-72
2021/12/20 09:19:26;;;;;;;12.30;3.03;;;6.70;99.90;;;6.31;83.81;102186.38;5225464;28;20045;-70
2021/12/20 09:21:58;;;;;;;18.20;4.05;;;6.70;99.90;;;6.30;84.01;102188.88;5225494;28;20401;-70
2021/12/20 09:24:30;;;;;;;13.85;2.80;;;6.70;99.90;;;6.24;83.42;102187.63;5224781;28;20155;-71
2021/12/20 09:27:04;;;;;;;6.47;1.80;;;6.60;99.90;;;6.49;91.07;102181.66;5225592;28;20057;-70
2021/12/20 09:29:38;;;;;;;13.88;2.15;;;6.70;99.90;;;8.52;100.00;102187.09;5225154;28;20045;-73
2021/12/20 09:32:10;;;;;;;10.73;2.65;;;8.30;99.90;;;8.25;82.03;102197.44;5225328;28;20098;-73
2021/12/20 09:34:42;;;;;;;9.98;2.20;;;8.70;99.90;;;7.88;76.98;102194.97;5224684;28;20055;-74
2021/12/20 09:37:14;;;;;;;9.07;2.92;;;8.50;99.90;;;7.58;78.03;102198.09;5207235;28;20056;-71
2021/12/20 09:39:50;;;;;;;10.48;2.13;;;8.20;99.90;;;7.32;78.04;102199.75;5225291;28;20055;-72
2021/12/20 09:42:23;;;;;;;11.77;2.65;;;7.90;99.90;;;7.03;78.32;102195.09;5227866;28;20115;-71
2021/12/20 09:44:57;;;;;;;13.45;2.17;;;7.70;99.90;;;6.88;79.10;102194.00;5228805;28;20508;-73
2021/12/20 09:47:33;;;;;;;16.95;2.72;;;7.40;99.90;;;6.85;79.15;102201.59;5229295;28;20401;-72
2021/12/20 09:50:06;;;;;;;10.88;2.13;;;7.30;99.90;;;6.82;79.99;102208.22;5228889;28;20482;-70
2021/12/20 09:52:38;;;;;;;14.18;1.98;;;7.20;99.90;;;6.84;80.93;102194.56;5229210;28;20051;-71
2021/12/20 09:55:11;;;;;;;9.93;2.65;;;7.20;99.90;;;6.91;81.40;102208.88;5228501;28;20060;-72
2021/12/20 09:57:48;;;;;;;11.68;2.88;;;7.20;99.90;;;6.94;80.64;102199.63;5228915;28;20417;-73
2021/12/20 10:00:23;;;;;;;7.57;1.85;;;7.20;99.90;;;7.10;83.91;102201.63;5229064;28;20045;-70
2021/12/20 10:02:55;;;;;;;10.80;3.45;;;7.30;99.90;;;7.20;80.64;102205.78;5229329;28;20147;-72
2021/12/20 10:05:27;;;;;;;12.60;2.15;;;7.40;99.90;;;7.25;79.83;102197.53;5228441;28;20053;-71
2021/12/20 10:08:02;;;;;;;8.88;1.80;;;7.50;99.90;;;7.31;78.69;102203.16;5228875;28;20152;-71
2021/12/20 10:10:41;;;;;;;11.82;2.50;;;7.50;99.90;;;7.28;76.48;102202.91;5228898;28;20080;-72
2021/12/20 10:13:24;;;;;;;11.02;2.20;;;7.50;99.90;;;7.35;76.78;102202.56;5228703;28;20075;-70
2021/12/20 10:15:59;;;;;;;8.57;1.85;;;7.50;99.90;;;7.44;76.23;102206.59;5227957;28;20049;-71
2021/12/20 10:18:35;;;;;;;;;;;7.60;99.90;;;8.56;95.06;102194.31;5229499;28;20048;-69
2021/12/20 10:21:07;;;;;;;8.27;2.30;;;8.30;99.90;;;9.27;88.96;102204.91;5228620;28;20339;-72
2021/12/20 10:23:41;;;;;;;11.15;2.10;;;9.20;99.90;;;9.12;75.73;102203.09;5228472;28;20478;-72
2021/12/20 10:26:18;;;;;;;11.13;1.90;;;9.30;99.90;;;8.68;68.54;102203.78;5228179;28;20155;-70
2021/12/20 10:28:53;;;;;;;14.27;3.05;;;9.10;99.90;;;8.57;69.72;102201.28;5228395;28;20460;-71
2021/12/20 10:31:28;;;;;;;13.15;2.47;;;8.90;99.90;;;8.46;69.53;102202.28;5228103;28;20095;-71
2021/12/20 10:34:04;;;;;;;10.25;2.47;;;8.70;99.90;;;8.43;69.79;102201.28;5227855;28;20049;-69
2021/12/20 10:36:36;;;;;;;8.38;1.90;;;8.70;99.90;;;8.43;69.33;102196.09;5228318;28;20057;-69
2021/12/20 10:39:08;;;;;;;8.38;1.85;;;8.60;99.90;;;8.27;67.60;102190.63;5228209;28;20085;-70
2021/12/20 10:41:49;;;;;;;12.55;2.22;;;8.60;99.90;;;8.22;68.02;102192.06;5228273;28;20502;-71
2021/12/20 10:44:24;;;;;;;11.45;1.95;;;8.50;99.90;;;8.23;68.49;102198.16;5227260;28;20049;-68
2021/12/20 10:46:57;;;;;;;6.85;1.80;;;8.40;99.90;;;8.31;67.75;102187.47;5227942;28;20044;-71
2021/12/20 10:49:31;;;;;;;11.40;1.95;;;8.50;99.90;;;8.27;66.15;102190.63;5228395;28;20045;-71